sensor_id;sensor_type;location;lat;lon;timestamp;temperature;humidity
38333;DHT22;25748;46.670;14.272;2024-03-06T00:02:13;8.30;73.40
38333;DHT22;25748;46.670;14.272;2024-03-06T00:04:39;8.30;73.50
38333;DHT22;25748;46.670;14.272;2024-03-06T00:07:05;8.30;73.70
38333;DHT22;25748;46.670;14.272;2024-03-06T00:09:31;8.30;73.90
38333;DHT22;25748;46.670;14.272;2024-03-06T00:11:57;8.30;74.00
38333;DHT22;25748;46.670;14.272;2024-03-06T00:14:23;8.30;73.90
38333;DHT22;25748;46.670;14.272;2024-03-06T00:16:50;8.30;74.00
38333;DHT22;25748;46.670;14.272;2024-03-06T00:19:16;8.30;74.20
38333;DHT22;25748;46.670;14.272;2024-03-06T00:21:42;8.30;74.00
38333;DHT22;25748;46.670;14.272;2024-03-06T00:24:08;8.30;74.10
38333;DHT22;25748;46.670;14.272;2024-03-06T00:26:33;8.30;74.20
38333;DHT22;25748;46.670;14.272;2024-03-06T00:28:59;8.30;74.20
38333;DHT22;25748;46.670;14.272;2024-03-06T00:31:25;8.30;74.10
38333;DHT22;25748;46.670;14.272;2024-03-06T00:33:50;8.30;74.20
38333;DHT22;25748;46.670;14.272;2024-03-06T00:36:16;8.30;73.90
38333;DHT22;25748;46.670;14.272;2024-03-06T00:38:42;8.20;73.70
38333;DHT22;25748;46.670;14.272;2024-03-06T00:41:08;8.30;74.30
38333;DHT22;25748;46.670;14.272;2024-03-06T00:43:34;8.20;73.90
38333;DHT22;25748;46.670;14.272;2024-03-06T00:45:59;8.20;73.90
38333;DHT22;25748;46.670;14.272;2024-03-06T00:48:25;8.20;73.60
38333;DHT22;25748;46.670;14.272;2024-03-06T00:50:51;8.20;73.90
38333;DHT22;25748;46.670;14.272;2024-03-06T00:53:16;8.20;73.90
38333;DHT22;25748;46.670;14.272;2024-03-06T00:55:42;8.10;74.10
38333;DHT22;25748;46.670;14.272;2024-03-06T00:58:08;8.10;74.20
38333;DHT22;25748;46.670;14.272;2024-03-06T01:00:33;8.10;74.20
38333;DHT22;25748;46.670;14.272;2024-03-06T01:02:59;8.20;74.40
38333;DHT22;25748;46.670;14.272;2024-03-06T01:05:25;8.10;74.40
38333;DHT22;25748;46.670;14.272;2024-03-06T01:07:50;8.10;74.40
38333;DHT22;25748;46.670;14.272;2024-03-06T01:10:16;8.10;74.20
38333;DHT22;25748;46.670;14.272;2024-03-06T01:12:42;8.10;74.30
38333;DHT22;25748;46.670;14.272;2024-03-06T01:15:11;8.00;74.20
38333;DHT22;25748;46.670;14.272;2024-03-06T01:17:36;8.00;74.40
38333;DHT22;25748;46.670;14.272;2024-03-06T01:20:02;8.10;74.80
38333;DHT22;25748;46.670;14.272;2024-03-06T01:22:33;8.00;74.70
38333;DHT22;25748;46.670;14.272;2024-03-06T01:24:58;8.00;74.90
38333;DHT22;25748;46.670;14.272;2024-03-06T01:27:24;8.00;75.00
38333;DHT22;25748;46.670;14.272;2024-03-06T01:29:50;8.00;74.80
38333;DHT22;25748;46.670;14.272;2024-03-06T01:32:16;8.00;74.80
38333;DHT22;25748;46.670;14.272;2024-03-06T01:34:41;8.00;74.80
38333;DHT22;25748;46.670;14.272;2024-03-06T01:37:07;8.00;74.90
38333;DHT22;25748;46.670;14.272;2024-03-06T01:39:33;7.90;74.70
38333;DHT22;25748;46.670;14.272;2024-03-06T01:42:01;7.90;74.80
38333;DHT22;25748;46.670;14.272;2024-03-06T01:44:27;7.90;75.00
38333;DHT22;25748;46.670;14.272;2024-03-06T01:46:53;7.90;75.20
38333;DHT22;25748;46.670;14.272;2024-03-06T01:49:19;7.90;75.20
38333;DHT22;25748;46.670;14.272;2024-03-06T01:51:50;7.90;75.30
38333;DHT22;25748;46.670;14.272;2024-03-06T01:54:17;7.90;75.60
38333;DHT22;25748;46.670;14.272;2024-03-06T01:56:46;7.90;75.60
38333;DHT22;25748;46.670;14.272;2024-03-06T01:59:13;7.90;75.80
38333;DHT22;25748;46.670;14.272;2024-03-06T02:01:40;7.90;75.70
38333;DHT22;25748;46.670;14.272;2024-03-06T02:04:09;7.80;75.40
38333;DHT22;25748;46.670;14.272;2024-03-06T02:06:39;7.80;75.50
38333;DHT22;25748;46.670;14.272;2024-03-06T02:09:04;7.80;75.60
38333;DHT22;25748;46.670;14.272;2024-03-06T02:11:31;7.80;75.50
38333;DHT22;25748;46.670;14.272;2024-03-06T02:13:57;7.80;75.70
38333;DHT22;25748;46.670;14.272;2024-03-06T02:16:23;7.80;75.90
38333;DHT22;25748;46.670;14.272;2024-03-06T02:18:56;7.80;76.10
38333;DHT22;25748;46.670;14.272;2024-03-06T02:21:25;7.80;76.20
38333;DHT22;25748;46.670;14.272;2024-03-06T02:23:51;7.80;76.10
38333;DHT22;25748;46.670;14.272;2024-03-06T02:26:18;7.80;76.10
38333;DHT22;25748;46.670;14.272;2024-03-06T02:28:51;7.80;76.30
38333;DHT22;25748;46.670;14.272;2024-03-06T02:31:17;7.80;76.20
38333;DHT22;25748;46.670;14.272;2024-03-06T02:33:47;7.80;76.20
38333;DHT22;25748;46.670;14.272;2024-03-06T02:36:14;7.80;76.20
38333;DHT22;25748;46.670;14.272;2024-03-06T02:38:39;7.80;76.30
38333;DHT22;25748;46.670;14.272;2024-03-06T02:41:05;7.80;76.20
38333;DHT22;25748;46.670;14.272;2024-03-06T02:43:33;7.70;76.20
38333;DHT22;25748;46.670;14.272;2024-03-06T02:45:59;7.80;76.50
38333;DHT22;25748;46.670;14.272;2024-03-06T02:48:25;7.80;76.60
38333;DHT22;25748;46.670;14.272;2024-03-06T02:50:50;7.70;76.50
38333;DHT22;25748;46.670;14.272;2024-03-06T02:53:16;7.80;76.70
38333;DHT22;25748;46.670;14.272;2024-03-06T02:55:42;7.70;76.40
38333;DHT22;25748;46.670;14.272;2024-03-06T02:58:07;7.70;76.40
38333;DHT22;25748;46.670;14.272;2024-03-06T03:00:33;7.70;76.60
38333;DHT22;25748;46.670;14.272;2024-03-06T03:02:59;7.70;76.60
38333;DHT22;25748;46.670;14.272;2024-03-06T03:05:24;7.70;76.50
38333;DHT22;25748;46.670;14.272;2024-03-06T03:07:50;7.70;76.60
38333;DHT22;25748;46.670;14.272;2024-03-06T03:10:16;7.70;76.70
38333;DHT22;25748;46.670;14.272;2024-03-06T03:12:42;7.70;76.70
38333;DHT22;25748;46.670;14.272;2024-03-06T03:15:09;7.70;76.60
38333;DHT22;25748;46.670;14.272;2024-03-06T03:17:35;7.70;76.70
38333;DHT22;25748;46.670;14.272;2024-03-06T03:20:04;7.70;76.70
38333;DHT22;25748;46.670;14.272;2024-03-06T03:22:37;7.70;76.80
38333;DHT22;25748;46.670;14.272;2024-03-06T03:25:04;7.70;76.90
38333;DHT22;25748;46.670;14.272;2024-03-06T03:27:32;7.70;77.10
38333;DHT22;25748;46.670;14.272;2024-03-06T03:29:58;7.70;77.20
38333;DHT22;25748;46.670;14.272;2024-03-06T03:32:25;7.70;77.40
38333;DHT22;25748;46.670;14.272;2024-03-06T03:34:50;7.70;77.30
38333;DHT22;25748;46.670;14.272;2024-03-06T03:37:16;7.70;77.40
38333;DHT22;25748;46.670;14.272;2024-03-06T03:39:44;7.70;77.40
38333;DHT22;25748;46.670;14.272;2024-03-06T03:42:09;7.70;77.40
38333;DHT22;25748;46.670;14.272;2024-03-06T03:44:35;7.70;77.30
38333;DHT22;25748;46.670;14.272;2024-03-06T03:47:01;7.70;77.30
38333;DHT22;25748;46.670;14.272;2024-03-06T03:49:27;7.70;77.20
38333;DHT22;25748;46.670;14.272;2024-03-06T03:51:53;7.60;77.20
38333;DHT22;25748;46.670;14.272;2024-03-06T03:54:18;7.60;77.20
38333;DHT22;25748;46.670;14.272;2024-03-06T03:56:44;7.60;77.20
38333;DHT22;25748;46.670;14.272;2024-03-06T03:59:09;7.60;77.10
38333;DHT22;25748;46.670;14.272;2024-03-06T04:01:35;7.60;77.30
38333;DHT22;25748;46.670;14.272;2024-03-06T04:04:01;7.60;77.20
38333;DHT22;25748;46.670;14.272;2024-03-06T04:06:26;7.60;77.30
38333;DHT22;25748;46.670;14.272;2024-03-06T04:08:52;7.60;77.20
38333;DHT22;25748;46.670;14.272;2024-03-06T04:11:18;7.60;77.00
38333;DHT22;25748;46.670;14.272;2024-03-06T04:13:43;7.60;77.10
38333;DHT22;25748;46.670;14.272;2024-03-06T04:16:09;7.60;77.10
38333;DHT22;25748;46.670;14.272;2024-03-06T04:18:35;7.60;77.00
38333;DHT22;25748;46.670;14.272;2024-03-06T04:21:07;7.50;76.80
38333;DHT22;25748;46.670;14.272;2024-03-06T04:23:34;7.50;76.50
38333;DHT22;25748;46.670;14.272;2024-03-06T04:26:01;7.40;76.40
38333;DHT22;25748;46.670;14.272;2024-03-06T04:28:26;7.40;76.30
38333;DHT22;25748;46.670;14.272;2024-03-06T04:30:52;7.30;76.30
38333;DHT22;25748;46.670;14.272;2024-03-06T04:33:18;7.30;76.40
38333;DHT22;25748;46.670;14.272;2024-03-06T04:35:43;7.20;76.00
38333;DHT22;25748;46.670;14.272;2024-03-06T04:38:09;7.20;76.30
38333;DHT22;25748;46.670;14.272;2024-03-06T04:40:35;7.10;75.80
38333;DHT22;25748;46.670;14.272;2024-03-06T04:43:01;7.10;75.90
38333;DHT22;25748;46.670;14.272;2024-03-06T04:45:26;7.00;75.30
38333;DHT22;25748;46.670;14.272;2024-03-06T04:47:53;7.00;75.60
38333;DHT22;25748;46.670;14.272;2024-03-06T04:50:19;6.90;75.30
38333;DHT22;25748;46.670;14.272;2024-03-06T04:52:58;6.80;74.50
38333;DHT22;25748;46.670;14.272;2024-03-06T04:55:24;6.60;73.80
38333;DHT22;25748;46.670;14.272;2024-03-06T04:57:51;6.50;74.60
38333;DHT22;25748;46.670;14.272;2024-03-06T05:00:17;6.50;74.80
38333;DHT22;25748;46.670;14.272;2024-03-06T05:02:43;6.40;74.60
38333;DHT22;25748;46.670;14.272;2024-03-06T05:05:09;6.40;74.60
38333;DHT22;25748;46.670;14.272;2024-03-06T05:07:35;6.30;74.50
38333;DHT22;25748;46.670;14.272;2024-03-06T05:10:00;6.20;74.60
38333;DHT22;25748;46.670;14.272;2024-03-06T05:12:27;6.10;75.20
38333;DHT22;25748;46.670;14.272;2024-03-06T05:14:53;6.10;75.00
38333;DHT22;25748;46.670;14.272;2024-03-06T05:17:20;6.10;75.20
38333;DHT22;25748;46.670;14.272;2024-03-06T05:19:46;6.10;75.50
38333;DHT22;25748;46.670;14.272;2024-03-06T05:22:13;6.10;75.70
38333;DHT22;25748;46.670;14.272;2024-03-06T05:24:39;6.10;76.00
38333;DHT22;25748;46.670;14.272;2024-03-06T05:27:04;6.10;76.20
38333;DHT22;25748;46.670;14.272;2024-03-06T05:29:30;6.20;76.40
38333;DHT22;25748;46.670;14.272;2024-03-06T05:31:56;6.10;75.70
38333;DHT22;25748;46.670;14.272;2024-03-06T05:34:25;6.10;75.90
38333;DHT22;25748;46.670;14.272;2024-03-06T05:36:50;6.10;76.20
38333;DHT22;25748;46.670;14.272;2024-03-06T05:39:16;6.10;76.40
38333;DHT22;25748;46.670;14.272;2024-03-06T05:41:43;6.10;76.40
38333;DHT22;25748;46.670;14.272;2024-03-06T05:44:09;6.10;76.40
38333;DHT22;25748;46.670;14.272;2024-03-06T05:46:35;6.10;76.40
38333;DHT22;25748;46.670;14.272;2024-03-06T05:49:01;6.10;76.60
38333;DHT22;25748;46.670;14.272;2024-03-06T05:51:27;6.10;76.90
38333;DHT22;25748;46.670;14.272;2024-03-06T05:53:53;6.10;77.10
38333;DHT22;25748;46.670;14.272;2024-03-06T05:56:19;6.20;77.10
38333;DHT22;25748;46.670;14.272;2024-03-06T05:58:45;6.20;77.20
38333;DHT22;25748;46.670;14.272;2024-03-06T06:01:13;6.20;77.30
38333;DHT22;25748;46.670;14.272;2024-03-06T06:03:41;6.20;77.50
38333;DHT22;25748;46.670;14.272;2024-03-06T06:06:06;6.30;77.80
38333;DHT22;25748;46.670;14.272;2024-03-06T06:08:34;6.30;78.00
38333;DHT22;25748;46.670;14.272;2024-03-06T06:11:01;6.40;78.30
38333;DHT22;25748;46.670;14.272;2024-03-06T06:13:28;6.40;78.50
38333;DHT22;25748;46.670;14.272;2024-03-06T06:15:54;6.50;78.70
38333;DHT22;25748;46.670;14.272;2024-03-06T06:18:19;6.50;78.90
38333;DHT22;25748;46.670;14.272;2024-03-06T06:20:45;6.60;79.10
38333;DHT22;25748;46.670;14.272;2024-03-06T06:23:11;6.70;79.30
38333;DHT22;25748;46.670;14.272;2024-03-06T06:25:37;6.70;79.40
38333;DHT22;25748;46.670;14.272;2024-03-06T06:28:02;6.80;79.50
38333;DHT22;25748;46.670;14.272;2024-03-06T06:30:29;6.80;79.60
38333;DHT22;25748;46.670;14.272;2024-03-06T06:32:54;6.80;79.60
38333;DHT22;25748;46.670;14.272;2024-03-06T06:35:20;6.90;79.80
38333;DHT22;25748;46.670;14.272;2024-03-06T06:37:45;6.90;79.70
38333;DHT22;25748;46.670;14.272;2024-03-06T06:40:12;7.00;79.90
38333;DHT22;25748;46.670;14.272;2024-03-06T06:42:44;7.00;79.90
38333;DHT22;25748;46.670;14.272;2024-03-06T06:45:10;7.10;80.10
38333;DHT22;25748;46.670;14.272;2024-03-06T06:47:36;7.10;80.00
38333;DHT22;25748;46.670;14.272;2024-03-06T06:50:02;7.10;80.00
38333;DHT22;25748;46.670;14.272;2024-03-06T06:52:30;7.20;80.00
38333;DHT22;25748;46.670;14.272;2024-03-06T06:54:59;7.20;80.00
38333;DHT22;25748;46.670;14.272;2024-03-06T06:57:24;7.20;80.10
38333;DHT22;25748;46.670;14.272;2024-03-06T06:59:50;7.30;80.20
38333;DHT22;25748;46.670;14.272;2024-03-06T07:02:15;7.30;80.10
38333;DHT22;25748;46.670;14.272;2024-03-06T07:04:41;7.30;80.10
38333;DHT22;25748;46.670;14.272;2024-03-06T07:07:07;7.40;80.30
38333;DHT22;25748;46.670;14.272;2024-03-06T07:09:33;7.40;80.40
38333;DHT22;25748;46.670;14.272;2024-03-06T07:11:59;7.50;80.60
38333;DHT22;25748;46.670;14.272;2024-03-06T07:14:25;7.50;80.60
38333;DHT22;25748;46.670;14.272;2024-03-06T07:16:50;7.50;80.50
38333;DHT22;25748;46.670;14.272;2024-03-06T07:19:16;7.50;80.50
38333;DHT22;25748;46.670;14.272;2024-03-06T07:21:42;7.60;80.50
38333;DHT22;25748;46.670;14.272;2024-03-06T07:24:09;7.60;80.60
38333;DHT22;25748;46.670;14.272;2024-03-06T07:26:34;7.70;80.60
38333;DHT22;25748;46.670;14.272;2024-03-06T07:29:00;7.70;80.60
38333;DHT22;25748;46.670;14.272;2024-03-06T07:31:27;7.70;80.70
38333;DHT22;25748;46.670;14.272;2024-03-06T07:33:52;7.80;80.70
38333;DHT22;25748;46.670;14.272;2024-03-06T07:36:19;7.90;80.80
38333;DHT22;25748;46.670;14.272;2024-03-06T07:38:45;7.90;80.80
38333;DHT22;25748;46.670;14.272;2024-03-06T07:41:11;7.90;80.80
38333;DHT22;25748;46.670;14.272;2024-03-06T07:43:37;8.00;80.80
38333;DHT22;25748;46.670;14.272;2024-03-06T07:46:04;8.00;80.80
38333;DHT22;25748;46.670;14.272;2024-03-06T07:48:41;8.10;80.70
38333;DHT22;25748;46.670;14.272;2024-03-06T07:51:07;8.10;80.30
38333;DHT22;25748;46.670;14.272;2024-03-06T07:53:33;8.10;80.30
38333;DHT22;25748;46.670;14.272;2024-03-06T07:55:59;8.10;80.20
38333;DHT22;25748;46.670;14.272;2024-03-06T07:58:24;8.20;80.40
38333;DHT22;25748;46.670;14.272;2024-03-06T08:00:50;8.20;79.80
38333;DHT22;25748;46.670;14.272;2024-03-06T08:03:18;8.30;79.90
38333;DHT22;25748;46.670;14.272;2024-03-06T08:05:43;8.30;80.00
38333;DHT22;25748;46.670;14.272;2024-03-06T08:08:09;8.40;80.10
38333;DHT22;25748;46.670;14.272;2024-03-06T08:10:35;8.40;79.90
38333;DHT22;25748;46.670;14.272;2024-03-06T08:13:00;8.50;80.00
38333;DHT22;25748;46.670;14.272;2024-03-06T08:15:26;8.60;80.10
38333;DHT22;25748;46.670;14.272;2024-03-06T08:17:51;8.60;80.00
38333;DHT22;25748;46.670;14.272;2024-03-06T08:20:18;8.70;79.90
38333;DHT22;25748;46.670;14.272;2024-03-06T08:22:43;8.70;79.40
38333;DHT22;25748;46.670;14.272;2024-03-06T08:25:10;8.70;79.20
38333;DHT22;25748;46.670;14.272;2024-03-06T08:27:38;8.80;78.80
38333;DHT22;25748;46.670;14.272;2024-03-06T08:30:04;8.80;78.70
38333;DHT22;25748;46.670;14.272;2024-03-06T08:32:31;8.80;78.10
38333;DHT22;25748;46.670;14.272;2024-03-06T08:35:08;8.90;78.30
38333;DHT22;25748;46.670;14.272;2024-03-06T08:37:37;9.00;78.00
38333;DHT22;25748;46.670;14.272;2024-03-06T08:40:05;9.00;78.00
38333;DHT22;25748;46.670;14.272;2024-03-06T08:42:30;9.10;78.10
38333;DHT22;25748;46.670;14.272;2024-03-06T08:44:57;9.20;77.80
38333;DHT22;25748;46.670;14.272;2024-03-06T08:47:23;9.30;77.10
38333;DHT22;25748;46.670;14.272;2024-03-06T08:49:48;9.30;76.80
38333;DHT22;25748;46.670;14.272;2024-03-06T08:52:14;9.40;76.30
38333;DHT22;25748;46.670;14.272;2024-03-06T08:54:42;9.40;75.90
38333;DHT22;25748;46.670;14.272;2024-03-06T08:57:08;9.50;75.60
38333;DHT22;25748;46.670;14.272;2024-03-06T08:59:37;9.60;75.90
38333;DHT22;25748;46.670;14.272;2024-03-06T09:02:17;9.70;75.30
38333;DHT22;25748;46.670;14.272;2024-03-06T09:04:44;9.80;75.30
38333;DHT22;25748;46.670;14.272;2024-03-06T09:07:10;9.90;74.80
38333;DHT22;25748;46.670;14.272;2024-03-06T09:09:36;9.90;74.00
38333;DHT22;25748;46.670;14.272;2024-03-06T09:12:06;10.00;74.00
38333;DHT22;25748;46.670;14.272;2024-03-06T09:14:32;10.10;73.90
38333;DHT22;25748;46.670;14.272;2024-03-06T09:16:58;10.10;72.70
38333;DHT22;25748;46.670;14.272;2024-03-06T09:19:24;10.20;71.90
38333;DHT22;25748;46.670;14.272;2024-03-06T09:21:50;10.20;71.30
38333;DHT22;25748;46.670;14.272;2024-03-06T09:24:15;10.20;70.60
38333;DHT22;25748;46.670;14.272;2024-03-06T09:26:41;10.20;69.40
38333;DHT22;25748;46.670;14.272;2024-03-06T09:29:07;10.20;69.40
38333;DHT22;25748;46.670;14.272;2024-03-06T09:31:32;10.20;68.70
38333;DHT22;25748;46.670;14.272;2024-03-06T09:33:58;10.20;68.70
38333;DHT22;25748;46.670;14.272;2024-03-06T09:36:24;10.30;68.40
38333;DHT22;25748;46.670;14.272;2024-03-06T09:38:51;10.30;68.40
38333;DHT22;25748;46.670;14.272;2024-03-06T09:41:18;10.30;68.50
38333;DHT22;25748;46.670;14.272;2024-03-06T09:43:44;10.30;67.70
38333;DHT22;25748;46.670;14.272;2024-03-06T09:46:10;10.30;67.60
38333;DHT22;25748;46.670;14.272;2024-03-06T09:48:36;10.40;67.40
38333;DHT22;25748;46.670;14.272;2024-03-06T09:51:10;10.40;67.80
38333;DHT22;25748;46.670;14.272;2024-03-06T09:53:38;10.40;67.80
38333;DHT22;25748;46.670;14.272;2024-03-06T09:56:05;10.40;67.20
38333;DHT22;25748;46.670;14.272;2024-03-06T09:58:31;10.40;67.20
38333;DHT22;25748;46.670;14.272;2024-03-06T10:00:59;10.50;66.70
38333;DHT22;25748;46.670;14.272;2024-03-06T10:03:25;10.40;66.10
38333;DHT22;25748;46.670;14.272;2024-03-06T10:05:52;10.40;65.50
38333;DHT22;25748;46.670;14.272;2024-03-06T10:08:19;10.40;65.80
38333;DHT22;25748;46.670;14.272;2024-03-06T10:10:47;10.40;66.00
38333;DHT22;25748;46.670;14.272;2024-03-06T10:13:16;10.30;66.40
38333;DHT22;25748;46.670;14.272;2024-03-06T10:15:54;10.30;66.90
38333;DHT22;25748;46.670;14.272;2024-03-06T10:18:20;10.40;66.60
38333;DHT22;25748;46.670;14.272;2024-03-06T10:20:46;10.40;66.90
38333;DHT22;25748;46.670;14.272;2024-03-06T10:23:12;10.40;67.40
38333;DHT22;25748;46.670;14.272;2024-03-06T10:25:38;10.40;67.20
38333;DHT22;25748;46.670;14.272;2024-03-06T10:30:31;10.30;67.20
38333;DHT22;25748;46.670;14.272;2024-03-06T10:32:58;10.40;67.40
38333;DHT22;25748;46.670;14.272;2024-03-06T10:35:25;10.40;67.30
38333;DHT22;25748;46.670;14.272;2024-03-06T10:37:52;10.40;66.90
38333;DHT22;25748;46.670;14.272;2024-03-06T10:40:20;10.30;66.90
38333;DHT22;25748;46.670;14.272;2024-03-06T10:42:48;10.40;66.70
38333;DHT22;25748;46.670;14.272;2024-03-06T10:45:15;10.40;66.70
38333;DHT22;25748;46.670;14.272;2024-03-06T10:47:46;10.40;66.00
38333;DHT22;25748;46.670;14.272;2024-03-06T10:50:15;10.40;66.20
38333;DHT22;25748;46.670;14.272;2024-03-06T10:52:42;10.40;66.20
38333;DHT22;25748;46.670;14.272;2024-03-06T10:55:11;10.40;66.70
38333;DHT22;25748;46.670;14.272;2024-03-06T10:57:39;10.40;66.40
38333;DHT22;25748;46.670;14.272;2024-03-06T11:00:06;10.40;66.10
38333;DHT22;25748;46.670;14.272;2024-03-06T11:02:32;10.40;65.70
38333;DHT22;25748;46.670;14.272;2024-03-06T11:04:58;10.40;66.10
38333;DHT22;25748;46.670;14.272;2024-03-06T11:07:24;10.40;65.80
38333;DHT22;25748;46.670;14.272;2024-03-06T11:09:53;10.40;65.60
38333;DHT22;25748;46.670;14.272;2024-03-06T11:12:51;10.40;65.40
38333;DHT22;25748;46.670;14.272;2024-03-06T11:15:17;10.40;65.50
38333;DHT22;25748;46.670;14.272;2024-03-06T11:17:43;10.50;65.10
38333;DHT22;25748;46.670;14.272;2024-03-06T11:20:13;10.50;65.30
38333;DHT22;25748;46.670;14.272;2024-03-06T11:30:57;10.50;65.40
38333;DHT22;25748;46.670;14.272;2024-03-06T11:33:40;10.60;65.70
38333;DHT22;25748;46.670;14.272;2024-03-06T11:36:19;10.60;66.10
38333;DHT22;25748;46.670;14.272;2024-03-06T11:41:46;10.70;66.40
38333;DHT22;25748;46.670;14.272;2024-03-06T11:44:22;10.70;66.10
38333;DHT22;25748;46.670;14.272;2024-03-06T11:49:18;10.70;65.40
38333;DHT22;25748;46.670;14.272;2024-03-06T11:51:46;10.70;65.80
38333;DHT22;25748;46.670;14.272;2024-03-06T11:54:12;10.80;66.00
38333;DHT22;25748;46.670;14.272;2024-03-06T11:56:44;10.80;65.90
38333;DHT22;25748;46.670;14.272;2024-03-06T11:59:10;10.90;66.10
38333;DHT22;25748;46.670;14.272;2024-03-06T12:01:37;10.90;65.80
38333;DHT22;25748;46.670;14.272;2024-03-06T12:04:03;10.90;65.50
38333;DHT22;25748;46.670;14.272;2024-03-06T12:06:31;11.10;65.80
38333;DHT22;25748;46.670;14.272;2024-03-06T12:08:58;11.10;65.40
38333;DHT22;25748;46.670;14.272;2024-03-06T12:11:24;11.20;65.30
38333;DHT22;25748;46.670;14.272;2024-03-06T12:13:51;11.30;65.20
38333;DHT22;25748;46.670;14.272;2024-03-06T12:16:17;11.30;64.80
38333;DHT22;25748;46.670;14.272;2024-03-06T12:18:43;11.40;64.50
38333;DHT22;25748;46.670;14.272;2024-03-06T12:21:10;11.50;64.00
38333;DHT22;25748;46.670;14.272;2024-03-06T12:23:36;11.40;61.60
38333;DHT22;25748;46.670;14.272;2024-03-06T12:26:03;11.40;61.90
38333;DHT22;25748;46.670;14.272;2024-03-06T12:28:29;11.40;62.40
38333;DHT22;25748;46.670;14.272;2024-03-06T12:30:55;11.40;62.50
38333;DHT22;25748;46.670;14.272;2024-03-06T12:33:21;11.40;62.20
38333;DHT22;25748;46.670;14.272;2024-03-06T12:35:47;11.30;63.00
38333;DHT22;25748;46.670;14.272;2024-03-06T12:38:17;11.30;63.10
38333;DHT22;25748;46.670;14.272;2024-03-06T12:40:43;11.30;62.90
38333;DHT22;25748;46.670;14.272;2024-03-06T12:43:09;11.20;63.10
38333;DHT22;25748;46.670;14.272;2024-03-06T12:45:36;11.20;62.90
38333;DHT22;25748;46.670;14.272;2024-03-06T12:48:03;11.20;62.80
38333;DHT22;25748;46.670;14.272;2024-03-06T12:50:30;11.20;62.60
38333;DHT22;25748;46.670;14.272;2024-03-06T12:52:55;11.20;62.40
38333;DHT22;25748;46.670;14.272;2024-03-06T12:55:21;11.10;60.90
38333;DHT22;25748;46.670;14.272;2024-03-06T12:57:47;11.10;60.50
38333;DHT22;25748;46.670;14.272;2024-03-06T13:00:13;11.00;59.60
38333;DHT22;25748;46.670;14.272;2024-03-06T13:02:43;11.00;59.40
38333;DHT22;25748;46.670;14.272;2024-03-06T13:05:09;11.00;59.00
38333;DHT22;25748;46.670;14.272;2024-03-06T13:07:35;11.00;59.00
38333;DHT22;25748;46.670;14.272;2024-03-06T13:10:05;11.10;59.10
38333;DHT22;25748;46.670;14.272;2024-03-06T13:12:31;11.00;59.20
38333;DHT22;25748;46.670;14.272;2024-03-06T13:14:57;11.00;59.40
38333;DHT22;25748;46.670;14.272;2024-03-06T13:17:22;11.10;59.30
38333;DHT22;25748;46.670;14.272;2024-03-06T13:19:48;11.10;59.20
38333;DHT22;25748;46.670;14.272;2024-03-06T13:22:14;11.10;59.30
38333;DHT22;25748;46.670;14.272;2024-03-06T13:24:40;11.00;59.30
38333;DHT22;25748;46.670;14.272;2024-03-06T13:27:06;11.00;59.60
38333;DHT22;25748;46.670;14.272;2024-03-06T13:29:31;11.00;59.70
38333;DHT22;25748;46.670;14.272;2024-03-06T13:31:57;11.10;59.70
38333;DHT22;25748;46.670;14.272;2024-03-06T13:34:23;11.00;59.50
38333;DHT22;25748;46.670;14.272;2024-03-06T13:36:48;11.00;59.30
38333;DHT22;25748;46.670;14.272;2024-03-06T13:39:15;11.00;59.00
38333;DHT22;25748;46.670;14.272;2024-03-06T13:41:41;10.90;59.00
38333;DHT22;25748;46.670;14.272;2024-03-06T13:44:07;10.90;59.00
38333;DHT22;25748;46.670;14.272;2024-03-06T13:46:33;10.90;59.10
38333;DHT22;25748;46.670;14.272;2024-03-06T13:48:59;10.90;59.40
38333;DHT22;25748;46.670;14.272;2024-03-06T13:51:26;10.90;59.50
38333;DHT22;25748;46.670;14.272;2024-03-06T13:53:51;10.80;59.40
38333;DHT22;25748;46.670;14.272;2024-03-06T13:56:17;10.80;59.50
38333;DHT22;25748;46.670;14.272;2024-03-06T13:58:43;10.80;59.60
38333;DHT22;25748;46.670;14.272;2024-03-06T14:01:09;10.80;59.40
38333;DHT22;25748;46.670;14.272;2024-03-06T14:03:35;10.80;59.40
38333;DHT22;25748;46.670;14.272;2024-03-06T14:06:03;10.80;59.50
38333;DHT22;25748;46.670;14.272;2024-03-06T14:08:29;10.70;59.60
38333;DHT22;25748;46.670;14.272;2024-03-06T14:10:55;10.80;59.80
38333;DHT22;25748;46.670;14.272;2024-03-06T14:13:20;10.80;59.90
38333;DHT22;25748;46.670;14.272;2024-03-06T14:15:46;10.80;59.90
38333;DHT22;25748;46.670;14.272;2024-03-06T14:18:13;10.70;59.80
38333;DHT22;25748;46.670;14.272;2024-03-06T14:20:39;10.70;59.70
38333;DHT22;25748;46.670;14.272;2024-03-06T14:23:05;10.70;59.80
38333;DHT22;25748;46.670;14.272;2024-03-06T14:25:30;10.70;59.90
38333;DHT22;25748;46.670;14.272;2024-03-06T14:28:00;10.70;60.00
38333;DHT22;25748;46.670;14.272;2024-03-06T14:30:26;10.70;60.00
38333;DHT22;25748;46.670;14.272;2024-03-06T14:32:53;10.60;60.20
38333;DHT22;25748;46.670;14.272;2024-03-06T14:35:18;10.60;60.30
38333;DHT22;25748;46.670;14.272;2024-03-06T14:37:44;10.60;60.40
38333;DHT22;25748;46.670;14.272;2024-03-06T14:40:10;10.60;60.60
38333;DHT22;25748;46.670;14.272;2024-03-06T14:42:36;10.60;60.40
38333;DHT22;25748;46.670;14.272;2024-03-06T14:45:02;10.60;60.50
38333;DHT22;25748;46.670;14.272;2024-03-06T14:47:31;10.60;60.90
38333;DHT22;25748;46.670;14.272;2024-03-06T14:49:57;10.60;60.70
38333;DHT22;25748;46.670;14.272;2024-03-06T14:52:23;10.60;60.80
38333;DHT22;25748;46.670;14.272;2024-03-06T14:54:49;10.60;60.50
38333;DHT22;25748;46.670;14.272;2024-03-06T14:57:14;10.50;60.80
38333;DHT22;25748;46.670;14.272;2024-03-06T14:59:40;10.50;60.80
38333;DHT22;25748;46.670;14.272;2024-03-06T15:02:06;10.50;61.10
38333;DHT22;25748;46.670;14.272;2024-03-06T15:04:32;10.50;61.20
38333;DHT22;25748;46.670;14.272;2024-03-06T15:06:57;10.50;61.20
38333;DHT22;25748;46.670;14.272;2024-03-06T15:09:25;10.50;61.40
38333;DHT22;25748;46.670;14.272;2024-03-06T15:11:51;10.50;61.00
38333;DHT22;25748;46.670;14.272;2024-03-06T15:14:18;10.50;61.00
38333;DHT22;25748;46.670;14.272;2024-03-06T15:16:47;10.50;61.10
38333;DHT22;25748;46.670;14.272;2024-03-06T15:19:13;10.40;61.00
38333;DHT22;25748;46.670;14.272;2024-03-06T15:21:39;10.40;60.90
38333;DHT22;25748;46.670;14.272;2024-03-06T15:24:05;10.40;61.10
38333;DHT22;25748;46.670;14.272;2024-03-06T15:26:31;10.40;60.80
38333;DHT22;25748;46.670;14.272;2024-03-06T15:28:57;10.40;61.10
38333;DHT22;25748;46.670;14.272;2024-03-06T15:31:23;10.40;61.40
38333;DHT22;25748;46.670;14.272;2024-03-06T15:33:49;10.40;61.80
38333;DHT22;25748;46.670;14.272;2024-03-06T15:36:15;10.40;61.80
38333;DHT22;25748;46.670;14.272;2024-03-06T15:38:41;10.40;61.60